Time;durP1;ratioP1;P1;durP2;ratioP2;P2;SDS_P1;SDS_P2;PMS_P1;PMS_P2;Temp;Humidity;BMP_temperature;BMP_pressure;BME280_temperature;BME280_humidity;BME280_pressure;Samples;Min_cycle;Max_cycle;Signal;HPM_P1;HPM_P2
2022/06/26 00:00:10;;;;;;;5.32;1.98;;;;;;;23.36;36.31;100687.41;2112250;27;20031;-73
2022/06/26 00:01:33;;;;;;;7.40;1.83;;;;;;;23.37;36.28;100691.84;2109493;28;20067;-72
2022/06/26 00:02:56;;;;;;;2.58;1.80;;;;;;;23.38;36.32;100688.22;2096774;28;20097;-73
2022/06/26 00:04:17;;;;;;;3.95;1.67;;;;;;;23.39;36.30;100688.16;2108624;28;20059;-73
2022/06/26 00:05:40;;;;;;;3.00;1.80;;;;;;;23.41;36.20;100696.19;2111633;28;20178;-73
2022/06/26 00:07:04;;;;;;;3.95;2.30;;;;;;;23.43;36.29;100694.34;2105111;28;20492;-73
2022/06/26 00:08:27;;;;;;;4.82;2.10;;;;;;;23.43;36.30;100695.19;2102266;28;20082;-72
2022/06/26 00:09:50;;;;;;;4.32;2.00;;;;;;;23.43;36.39;100697.03;2110441;28;20067;-73
2022/06/26 00:11:12;;;;;;;3.28;2.08;;;;;;;23.44;36.30;100687.97;2103536;28;20055;-72
2022/06/26 00:12:34;;;;;;;6.25;2.00;;;;;;;23.44;36.23;100691.56;2119309;27;20045;-73
2022/06/26 00:13:57;;;;;;;2.67;1.90;;;;;;;23.44;36.29;100698.75;2112018;28;20452;-72
2022/06/26 00:15:19;;;;;;;4.13;2.10;;;;;;;23.41;36.41;100701.59;2109472;28;20166;-73
2022/06/26 00:16:41;;;;;;;2.58;1.90;;;;;;;23.37;36.52;100702.63;2100480;28;20044;-72
2022/06/26 00:18:03;;;;;;;4.65;2.08;;;;;;;23.36;36.66;100703.59;2107177;28;20046;-72
2022/06/26 00:19:26;;;;;;;3.30;1.88;;;;;;;23.37;36.46;100700.81;2106919;28;20392;-73
2022/06/26 00:20:48;;;;;;;4.55;1.85;;;;;;;23.39;36.32;100700.75;2093763;28;20047;-74
2022/06/26 00:22:11;;;;;;;3.17;2.08;;;;;;;23.40;36.28;100703.41;2115680;27;20063;-73
2022/06/26 00:23:34;;;;;;;3.65;1.95;;;;;;;23.41;36.23;100702.47;2107128;28;20044;-73
2022/06/26 00:24:56;;;;;;;3.30;1.75;;;;;;;23.42;36.24;100698.84;2102556;28;20554;-73
2022/06/26 00:26:18;;;;;;;2.83;1.95;;;;;;;23.43;36.17;100705.97;2103255;28;20901;-73
2022/06/26 00:27:41;;;;;;;4.93;2.17;;;;;;;23.40;36.17;100706.09;2110530;28;20044;-73
2022/06/26 00:29:03;;;;;;;5.03;2.00;;;;;;;23.37;36.27;100711.59;2095874;28;20698;-73
2022/06/26 00:30:25;;;;;;;3.97;2.60;;;;;;;23.36;36.38;100719.75;2104626;28;20051;-72
2022/06/26 00:31:48;;;;;;;4.15;2.25;;;;;;;23.36;36.48;100708.97;2105080;28;20043;-73
2022/06/26 00:33:09;;;;;;;4.88;2.25;;;;;;;23.37;36.57;100708.00;2101822;28;20267;-72
2022/06/26 00:34:33;;;;;;;4.18;2.22;;;;;;;23.37;36.41;100713.41;2104553;28;20498;-73
2022/06/26 00:35:54;;;;;;;5.78;2.35;;;;;;;23.37;36.68;100716.09;2110627;28;20047;-72
2022/06/26 00:37:18;;;;;;;3.92;2.58;;;;;;;23.31;36.99;100714.53;2099037;28;20139;-72
2022/06/26 00:38:40;;;;;;;3.47;2.03;;;;;;;23.25;37.18;100719.25;2103618;28;20054;-73
2022/06/26 00:40:03;;;;;;;3.22;2.30;;;;;;;23.24;37.15;100722.88;2093446;28;20517;-72
2022/06/26 00:41:26;;;;;;;3.10;1.98;;;;;;;23.21;37.28;100723.91;2103846;28;20043;-73
2022/06/26 00:42:49;;;;;;;5.28;2.35;;;;;;;23.20;37.25;100721.25;2109500;28;20043;-73
2022/06/26 00:44:16;;;;;;;4.10;1.98;;;;;;;23.23;37.30;100718.47;2108167;28;20484;-73
2022/06/26 00:45:38;;;;;;;3.47;2.22;;;;;;;23.23;37.10;100718.47;2108309;28;20135;-72
2022/06/26 00:47:01;;;;;;;5.18;2.17;;;;;;;23.23;37.07;100713.94;2089027;28;20048;-73
2022/06/26 00:48:23;;;;;;;4.32;2.00;;;;;;;23.25;37.21;100711.19;2106685;28;20067;-73
2022/06/26 00:49:46;;;;;;;5.80;2.30;;;;;;;23.26;37.07;100716.50;2108332;28;20072;-73
2022/06/26 00:51:08;;;;;;;4.40;2.10;;;;;;;23.25;37.16;100717.44;2094731;28;20071;-73
2022/06/26 00:52:34;;;;;;;3.75;1.90;;;;;;;23.26;37.21;100719.22;2104520;28;20048;-73
2022/06/26 00:53:55;;;;;;;3.97;2.35;;;;;;;23.26;37.15;100719.22;2102243;28;20044;-73
2022/06/26 00:55:18;;;;;;;4.43;2.35;;;;;;;23.25;37.28;100717.44;2109419;28;20502;-73
2022/06/26 00:56:41;;;;;;;2.60;2.08;;;;;;;23.24;37.37;100715.69;2104119;28;20048;-73
2022/06/26 00:58:04;;;;;;;3.10;2.10;;;;;;;23.23;37.59;100716.66;2092757;28;20455;-73
2022/06/26 00:59:27;;;;;;;4.65;2.00;;;;;;;23.23;37.64;100722.03;2116991;27;20039;-72
2022/06/26 01:00:50;;;;;;;5.43;2.47;;;;;;;23.23;37.68;100719.34;2100032;28;20139;-73
2022/06/26 01:02:12;;;;;;;5.90;2.30;;;;;;;23.20;37.75;100714.06;2105605;27;20046;-73
2022/06/26 01:03:34;;;;;;;6.75;2.40;;;;;;;23.17;37.89;100718.69;2097419;28;20136;-72
2022/06/26 01:04:56;;;;;;;4.45;2.55;;;;;;;23.13;38.12;100728.69;2110927;28;20628;-73
2022/06/26 01:06:19;;;;;;;6.63;2.88;;;;;;;23.11;38.06;100726.97;2101756;28;20052;-73
2022/06/26 01:07:42;;;;;;;5.95;2.50;;;;;;;23.08;38.09;100721.72;2112052;28;20075;-72
2022/06/26 01:09:10;;;;;;;5.20;2.88;;;;;;;23.05;38.28;100718.19;2103957;28;20044;-73
2022/06/26 01:10:33;;;;;;;3.53;2.55;;;;;;;23.04;38.38;100715.53;2105501;28;20068;-73
2022/06/26 01:11:54;;;;;;;5.95;2.80;;;;;;;23.02;38.38;100715.63;2112247;28;20055;-72
2022/06/26 01:13:18;;;;;;;4.18;2.80;;;;;;;23.01;38.48;100719.25;2111152;28;20454;-72
2022/06/26 01:14:40;;;;;;;4.05;2.47;;;;;;;22.99;38.58;100721.09;2094894;28;20056;-72
2022/06/26 01:16:02;;;;;;;4.45;2.45;;;;;;;22.97;38.58;100727.50;2098571;28;20036;-73
2022/06/26 01:17:25;;;;;;;;;;;;;;;22.93;38.75;100718.63;2095796;28;20143;-72
2022/06/26 01:18:50;;;;;;;4.95;2.30;;;;;;;22.94;38.81;100720.38;2093332;28;19963;-73
2022/06/26 01:20:12;;;;;;;4.72;2.03;;;;;;;22.96;38.71;100725.72;2103666;28;20156;-72
2022/06/26 01:21:36;;;;;;;5.85;2.22;;;;;;;22.98;38.61;100719.34;2109165;28;20523;-73
2022/06/26 01:23:02;;;;;;;4.85;2.10;;;;;;;22.99;38.64;100720.22;2103771;28;20395;-72
2022/06/26 01:24:23;;;;;;;4.68;2.25;;;;;;;22.98;38.60;100719.34;2109051;28;20035;-73
2022/06/26 01:25:48;;;;;;;3.10;2.33;;;;;;;22.99;38.53;100726.47;2103729;28;20523;-72
2022/06/26 01:27:11;;;;;;;4.43;2.10;;;;;;;22.99;38.47;100729.19;2090366;28;20041;-73
2022/06/26 01:28:34;;;;;;;5.15;2.30;;;;;;;22.99;38.52;100723.78;2092697;28;20057;-73
2022/06/26 01:29:56;;;;;;;5.82;2.20;;;;;;;23.00;38.44;100728.25;2095371;28;20055;-72
2022/06/26 01:31:20;;;;;;;5.15;2.00;;;;;;;22.97;38.46;100717.56;2099554;28;20048;-73
2022/06/26 01:32:42;;;;;;;3.60;2.00;;;;;;;22.95;38.52;100727.53;2096685;28;20045;-72
2022/06/26 01:34:08;;;;;;;3.97;2.30;;;;;;;22.94;38.61;100719.50;2085779;28;20044;-72
2022/06/26 01:35:30;;;;;;;4.53;2.75;;;;;;;22.92;38.75;100721.38;2101431;28;20060;-72
2022/06/26 01:36:57;;;;;;;4.88;2.13;;;;;;;22.90;38.86;100721.44;2095460;28;20056;-73
2022/06/26 01:38:24;;;;;;;6.55;2.40;;;;;;;22.91;38.93;100720.47;2101437;28;20036;-73
2022/06/26 01:39:48;;;;;;;5.32;2.33;;;;;;;22.90;38.95;100724.13;2094471;28;20045;-73
2022/06/26 01:41:10;;;;;;;3.75;2.10;;;;;;;22.92;39.02;100730.31;2107560;28;20739;-73
2022/06/26 01:42:35;;;;;;;7.15;2.53;;;;;;;22.93;39.13;100715.94;2095753;28;20508;-73
2022/06/26 01:43:57;;;;;;;4.35;2.08;;;;;;;22.92;39.23;100718.69;2092497;28;20056;-73
2022/06/26 01:45:20;;;;;;;3.78;2.35;;;;;;;22.91;39.36;100725.00;2095086;28;20273;-73
2022/06/26 01:46:43;;;;;;;6.05;2.30;;;;;;;22.90;39.32;100728.66;2095447;28;20040;-73
2022/06/26 01:48:05;;;;;;;6.75;2.00;;;;;;;22.89;39.28;100732.25;2094278;28;20045;-73
2022/06/26 01:49:27;;;;;;;;;;;;;;;22.85;39.34;100727.91;2109462;28;20142;-72
2022/06/26 01:50:50;;;;;;;4.63;2.83;;;;;;;22.86;39.27;100724.28;2096490;28;19924;-73
2022/06/26 01:52:12;;;;;;;3.95;2.10;;;;;;;22.85;39.48;100728.78;2102083;28;20396;-73
2022/06/26 01:53:38;;;;;;;9.02;2.95;;;;;;;22.85;39.34;100734.16;2101881;28;20055;-72
2022/06/26 01:54:59;;;;;;;6.88;2.42;;;;;;;22.82;39.63;100734.28;2110052;28;20040;-74
2022/06/26 01:56:22;;;;;;;4.75;2.90;;;;;;;22.78;39.56;100732.63;2095825;28;20531;-72
2022/06/26 01:57:44;;;;;;;5.75;3.67;;;;;;;22.76;39.74;100737.22;2107014;28;20039;-73
2022/06/26 01:59:16;;;;;;;5.65;2.17;;;;;;;22.76;39.75;100736.31;2103563;28;20113;-72
2022/06/26 02:00:43;;;;;;;3.90;2.38;;;;;;;22.75;39.78;100735.44;2097586;28;20067;-73
2022/06/26 02:02:07;;;;;;;3.78;2.67;;;;;;;22.71;39.78;100733.72;2092485;28;20052;-72
2022/06/26 02:03:28;;;;;;;4.55;2.47;;;;;;;22.71;39.76;100733.72;2102831;28;20054;-72
2022/06/26 02:04:51;;;;;;;7.35;2.03;;;;;;;22.72;39.84;100732.81;2102179;28;20127;-72
2022/06/26 02:06:13;;;;;;;4.32;2.47;;;;;;;22.74;39.62;100733.69;2107134;28;20526;-72
2022/06/26 02:07:34;;;;;;;3.88;2.08;;;;;;;22.76;39.51;100741.72;2101465;28;20052;-72
2022/06/26 02:08:58;;;;;;;5.78;2.50;;;;;;;22.77;39.58;100735.41;2095920;28;20044;-72
2022/06/26 02:13:55;;;;;;;4.25;2.10;;;;;;;22.71;39.61;100736.44;2072589;28;20049;-72
2022/06/26 02:15:19;;;;;;;4.30;2.28;;;;;;;22.73;39.72;100740.00;2082378;28;20068;-72
2022/06/26 02:16:43;;;;;;;4.32;2.60;;;;;;;22.72;39.68;100738.19;2100523;28;20044;-72
2022/06/26 02:18:06;;;;;;;8.18;2.75;;;;;;;22.74;39.72;100746.25;2087235;28;20577;-72
2022/06/26 02:19:29;;;;;;;6.43;2.63;;;;;;;22.73;39.84;100740.00;2096519;28;20048;-72
2022/06/26 02:20:50;;;;;;;7.13;2.70;;;;;;;22.73;39.87;100745.38;2101559;28;20535;-73
2022/06/26 02:22:13;;;;;;;;;;;;;;;22.71;39.99;100738.25;2103385;28;20166;-72
2022/06/26 02:23:37;;;;;;;4.68;2.42;;;;;;;22.70;40.01;100740.06;2095193;28;19927;-72
2022/06/26 02:25:01;;;;;;;6.57;2.50;;;;;;;22.72;40.22;100738.19;2089347;28;20080;-73
2022/06/26 02:26:24;;;;;;;4.65;2.30;;;;;;;22.70;40.22;100745.47;2104598;28;20429;-73
2022/06/26 02:27:49;;;;;;;4.32;2.42;;;;;;;22.65;40.36;100737.53;2098987;28;20060;-73
2022/06/26 02:29:12;;;;;;;3.50;2.28;;;;;;;22.62;40.53;100734.94;2095752;28;20041;-72
2022/06/26 02:30:34;;;;;;;6.40;2.47;;;;;;;22.61;40.44;100743.97;2108256;28;20142;-73
2022/06/26 02:31:57;;;;;;;7.95;2.50;;;;;;;22.59;40.63;100729.66;2109970;28;20063;-73
2022/06/26 02:33:19;;;;;;;3.75;2.10;;;;;;;22.59;40.42;100736.84;2089862;28;20520;-72
2022/06/26 02:34:42;;;;;;;5.72;2.65;;;;;;;22.57;40.54;100736.94;2108954;28;20048;-72
2022/06/26 02:36:06;;;;;;;5.43;2.40;;;;;;;22.57;40.55;100739.63;2092705;28;20056;-72
2022/06/26 02:37:29;;;;;;;4.78;2.20;;;;;;;22.54;40.58;100731.63;2086200;28;20047;-73
2022/06/26 02:38:52;;;;;;;4.05;2.42;;;;;;;22.55;40.57;100737.91;2091420;28;20032;-73
2022/06/26 02:40:15;;;;;;;4.55;2.70;;;;;;;22.56;40.76;100731.59;2116022;27;20533;-72
2022/06/26 02:41:39;;;;;;;5.25;2.30;;;;;;;22.55;40.71;100737.91;2099705;28;20052;-72
2022/06/26 02:43:02;;;;;;;5.03;2.10;;;;;;;22.52;40.85;100741.56;2093155;28;20071;-73
2022/06/26 02:44:26;;;;;;;5.15;2.35;;;;;;;22.49;40.92;100738.13;2109445;28;20128;-72
2022/06/26 02:45:47;;;;;;;3.42;2.20;;;;;;;22.47;40.90;100732.78;2103198;28;20040;-72
2022/06/26 02:47:10;;;;;;;3.60;1.98;;;;;;;22.49;40.87;100735.41;2110478;28;20166;-73
2022/06/26 02:48:33;;;;;;;7.68;3.53;;;;;;;22.51;40.76;100734.41;2100039;28;20139;-73
2022/06/26 02:49:55;;;;;;;4.30;2.40;;;;;;;22.53;40.81;100739.75;2100810;28;20631;-73
2022/06/26 02:51:19;;;;;;;7.55;2.88;;;;;;;22.51;40.75;100738.94;2099893;28;20595;-73
2022/06/26 02:52:40;;;;;;;6.35;2.83;;;;;;;22.53;40.76;100737.06;2086169;28;20059;-73
2022/06/26 02:54:02;;;;;;;4.72;2.88;;;;;;;22.53;40.85;100734.38;2083523;28;20099;-72
2022/06/26 02:55:27;;;;;;;10.13;2.72;;;;;;;22.53;41.00;100737.06;2103518;28;20059;-72
2022/06/26 02:56:49;;;;;;;9.00;3.20;;;;;;;22.52;41.17;100735.31;2091485;28;20040;-73
2022/06/26 02:58:11;;;;;;;5.50;2.33;;;;;;;22.50;41.11;100735.38;2107928;28;20036;-73
2022/06/26 02:59:39;;;;;;;6.40;2.25;;;;;;;22.49;41.13;100730.91;2102049;28;20105;-73
2022/06/26 03:01:02;;;;;;;5.50;2.80;;;;;;;22.47;41.31;100731.91;2103687;28;20534;-73
2022/06/26 03:02:24;;;;;;;4.38;2.65;;;;;;;22.44;41.43;100735.59;2103006;28;20043;-73
2022/06/26 03:03:56;;;;;;;3.95;2.30;;;;;;;22.39;41.64;100737.53;2109616;28;20108;-73
2022/06/26 03:05:20;;;;;;;5.93;2.50;;;;;;;22.36;41.69;100734.06;2102706;28;20647;-73
2022/06/26 03:06:41;;;;;;;4.20;2.45;;;;;;;22.36;41.78;100734.97;2096669;28;20060;-73
2022/06/26 03:08:04;;;;;;;6.88;2.80;;;;;;;22.37;41.70;100736.72;2102102;28;20135;-74
2022/06/26 03:09:27;;;;;;;6.13;2.80;;;;;;;22.36;41.85;100734.06;2098762;28;20117;-73
2022/06/26 03:10:51;;;;;;;4.97;2.45;;;;;;;22.40;41.78;100741.09;2107039;28;20082;-73
2022/06/26 03:12:12;;;;;;;6.13;3.22;;;;;;;22.44;41.66;100737.41;2096300;28;20183;-73
2022/06/26 03:13:37;;;;;;;3.97;2.58;;;;;;;22.46;41.84;100735.50;2099908;28;20645;-73
2022/06/26 03:14:59;;;;;;;4.80;2.33;;;;;;;22.49;41.64;100741.69;2097874;28;20074;-73
2022/06/26 03:16:21;;;;;;;4.88;2.33;;;;;;;22.51;41.65;100738.94;2094986;28;20127;-73
2022/06/26 03:17:43;;;;;;;4.75;2.60;;;;;;;22.56;41.71;100739.66;2092351;28;20049;-72
2022/06/26 03:19:06;;;;;;;4.03;2.40;;;;;;;22.58;41.67;100740.47;2108660;28;20457;-73
2022/06/26 03:20:29;;;;;;;6.70;2.30;;;;;;;22.63;41.63;100742.09;2099287;28;20068;-72
2022/06/26 03:21:50;;;;;;;6.05;2.33;;;;;;;22.67;41.59;100737.47;2097760;28;20052;-73
2022/06/26 03:23:13;;;;;;;6.43;2.35;;;;;;;22.72;41.59;100743.56;2108368;28;20531;-73
2022/06/26 03:24:34;;;;;;;5.20;2.42;;;;;;;22.77;41.52;100741.66;2098616;28;20040;-73
2022/06/26 03:25:59;;;;;;;6.82;2.60;;;;;;;22.81;41.54;100746.00;2092473;28;20048;-73
2022/06/26 03:27:25;;;;;;;3.63;2.22;;;;;;;22.83;41.50;100744.13;2098470;28;20093;-72
2022/06/26 03:28:47;;;;;;;9.45;2.67;;;;;;;22.89;41.51;100753.81;2110960;27;20047;-72
2022/06/26 03:30:12;;;;;;;13.00;3.75;;;;;;;22.90;41.55;100764.53;2093037;28;20044;-73
2022/06/26 03:31:40;;;;;;;6.38;2.42;;;;;;;22.95;41.55;100751.78;2108287;28;20048;-72
2022/06/26 03:33:04;;;;;;;7.95;2.50;;;;;;;22.98;41.54;100754.34;2095928;28;20755;-72
2022/06/26 03:34:27;;;;;;;5.68;3.53;;;;;;;23.05;41.44;100760.38;2099319;28;20061;-72
2022/06/26 03:35:54;;;;;;;7.13;2.75;;;;;;;23.13;41.38;100758.31;2107724;28;20035;-72
2022/06/26 03:37:17;;;;;;;6.97;2.55;;;;;;;23.22;41.36;100762.50;2101313;28;20067;-72
2022/06/26 03:38:40;;;;;;;5.72;3.05;;;;;;;23.31;41.37;100762.13;2100152;28;20048;-73
2022/06/26 03:40:07;;;;;;;9.15;2.75;;;;;;;23.38;41.39;100755.59;2090551;28;20564;-73
2022/06/26 03:41:30;;;;;;;4.05;2.28;;;;;;;23.47;41.52;100755.28;2091751;28;20044;-73
2022/06/26 03:42:52;;;;;;;8.93;2.67;;;;;;;23.54;41.29;100755.94;2091369;28;20079;-72
2022/06/26 03:44:15;;;;;;;7.07;2.60;;;;;;;23.61;41.18;100760.16;2097678;28;20068;-73
2022/06/26 03:45:38;;;;;;;9.68;2.50;;;;;;;23.68;41.06;100759.00;2105463;28;20051;-72
2022/06/26 03:47:01;;;;;;;3.90;2.13;;;;;;;23.75;41.03;100756.00;2096125;28;20044;-73
2022/06/26 03:48:23;;;;;;;9.23;2.60;;;;;;;23.83;40.84;100759.25;2101534;28;20143;-73
2022/06/26 03:49:52;;;;;;;8.98;3.08;;;;;;;23.93;40.92;100761.59;2096362;28;20044;-74
2022/06/26 03:51:16;;;;;;;6.35;2.22;;;;;;;24.04;40.93;100759.34;2101068;28;20063;-73
2022/06/26 03:52:38;;;;;;;8.48;3.50;;;;;;;24.12;40.77;100755.41;2107282;28;20050;-73
2022/06/26 03:54:05;;;;;;;6.47;2.83;;;;;;;24.23;40.92;100758.56;2101223;28;20399;-73
2022/06/26 03:55:27;;;;;;;5.10;2.22;;;;;;;24.34;40.90;100760.84;2094109;28;20044;-72
2022/06/26 03:56:51;;;;;;;7.60;2.42;;;;;;;24.47;40.85;100763.91;2101680;28;20044;-72
2022/06/26 03:58:16;;;;;;;4.82;2.42;;;;;;;24.57;40.77;100755.38;2098269;28;20044;-73
2022/06/26 03:59:38;;;;;;;4.30;2.30;;;;;;;24.67;40.62;100761.25;2093302;28;20113;-73
2022/06/26 04:01:01;;;;;;;4.63;2.50;;;;;;;24.77;40.42;100756.34;2089593;28;20041;-73
2022/06/26 04:02:23;;;;;;;4.50;2.60;;;;;;;24.84;40.39;100756.00;2095485;28;20469;-72
2022/06/26 04:03:45;;;;;;;9.65;2.53;;;;;;;24.95;40.22;100759.13;2090671;28;20347;-73
2022/06/26 04:05:09;;;;;;;8.05;2.60;;;;;;;25.07;40.26;100755.06;2114547;27;20142;-72
2022/06/26 04:06:32;;;;;;;6.15;2.45;;;;;;;25.16;39.98;100757.31;2098911;28;20071;-73
2022/06/26 04:08:02;;;;;;;7.95;3.03;;;;;;;25.29;40.24;100752.25;2095996;28;20432;-73
2022/06/26 04:09:47;;;;;;;7.38;2.80;;;;;;;25.45;39.99;100752.44;2103096;28;20315;-73
2022/06/26 04:11:15;;;;;;;11.80;2.88;;;;;;;25.57;40.16;100760.88;2102283;28;20044;-73
2022/06/26 04:12:39;;;;;;;4.72;2.10;;;;;;;25.70;40.28;100750.38;2101173;28;20055;-73
2022/06/26 04:14:02;;;;;;;5.43;2.35;;;;;;;25.83;40.15;100753.38;2099093;28;20075;-73
2022/06/26 04:15:24;;;;;;;8.10;2.60;;;;;;;25.95;40.37;100752.78;2093855;28;20048;-73
2022/06/26 04:16:47;;;;;;;5.55;3.60;;;;;;;26.11;40.03;100756.50;2102463;28;20575;-73
2022/06/26 04:18:09;;;;;;;5.40;2.28;;;;;;;26.27;40.13;100753.94;2095760;28;20140;-73
2022/06/26 04:19:32;;;;;;;7.47;2.50;;;;;;;26.38;39.95;100744.38;2096587;28;20075;-72
2022/06/26 04:20:54;;;;;;;9.40;3.30;;;;;;;26.52;39.83;100752.66;2090225;28;20564;-72
2022/06/26 04:22:17;;;;;;;12.07;2.65;;;;;;;26.63;39.84;100746.69;2107699;28;20058;-73
2022/06/26 04:23:38;;;;;;;9.75;2.88;;;;;;;26.77;39.83;100746.88;2090430;28;20056;-72
2022/06/26 04:25:06;;;;;;;6.70;2.35;;;;;;;26.92;39.51;100747.91;2093393;28;20525;-72
2022/06/26 04:26:28;;;;;;;6.00;2.55;;;;;;;27.11;39.38;100753.28;2099606;28;20130;-72
2022/06/26 04:27:52;;;;;;;8.20;2.60;;;;;;;27.29;39.08;100745.03;2093961;28;20159;-73
2022/06/26 04:29:15;;;;;;;8.75;2.45;;;;;;;27.47;38.93;100748.56;2088721;28;20104;-74
2022/06/26 04:30:37;;;;;;;6.47;2.60;;;;;;;27.64;38.69;100745.81;2091060;28;20139;-73
2022/06/26 04:32:00;;;;;;;8.13;2.03;;;;;;;27.83;38.56;100742.97;2099139;28;20738;-72
2022/06/26 04:33:21;;;;;;;8.77;2.97;;;;;;;28.04;38.23;100749.91;2103210;28;20058;-73
2022/06/26 04:34:44;;;;;;;5.95;2.75;;;;;;;28.24;37.97;100748.78;2103550;28;20609;-73
2022/06/26 04:36:07;;;;;;;9.68;2.70;;;;;;;28.41;37.77;100740.56;2093798;28;20040;-73
2022/06/26 04:37:32;;;;;;;11.10;2.70;;;;;;;28.58;37.75;100750.41;2090527;28;20056;-73
2022/06/26 04:38:55;;;;;;;6.78;2.45;;;;;;;28.77;37.59;100744.78;2102073;28;20058;-73
2022/06/26 04:40:18;;;;;;;9.80;2.53;;;;;;;28.97;37.42;100749.88;2095639;28;20044;-74
2022/06/26 04:41:41;;;;;;;7.10;2.90;;;;;;;29.20;36.97;100752.09;2094077;28;20050;-73
2022/06/26 04:43:04;;;;;;;8.75;2.63;;;;;;;29.46;36.46;100763.22;2091089;28;20492;-73
2022/06/26 04:44:26;;;;;;;6.95;2.90;;;;;;;29.66;36.34;100763.72;2106787;28;20051;-74
2022/06/26 04:45:50;;;;;;;8.32;3.00;;;;;;;29.87;36.07;100764.16;2096105;28;20078;-73
2022/06/26 04:47:14;;;;;;;12.43;2.80;;;;;;;30.11;35.70;100772.63;2091380;28;20053;-73
2022/06/26 04:49:00;;;;;;;11.00;2.38;;;;;;;30.38;35.55;100768.09;2109979;28;20074;-73
2022/06/26 04:50:22;;;;;;;12.45;3.00;;;;;;;30.58;35.30;100774.97;2114232;28;20051;-73
2022/06/26 04:51:45;;;;;;;13.48;3.38;;;;;;;30.76;34.68;100784.63;2095808;28;20054;-73
2022/06/26 04:53:34;;;;;;;7.18;2.30;;;;;;;31.00;34.40;100773.00;2101457;28;20052;-73
2022/06/26 04:54:56;;;;;;;6.82;2.20;;;;;;;31.16;33.81;100779.19;2104901;28;20418;-73
2022/06/26 04:56:20;;;;;;;6.05;2.40;;;;;;;31.33;33.71;100780.72;2110436;28;20080;-74
2022/06/26 04:57:54;;;;;;;6.80;2.33;;;;;;;31.51;33.39;100780.28;2095800;28;20037;-73
2022/06/26 04:59:17;;;;;;;4.93;2.13;;;;;;;31.72;32.89;100780.63;2091338;28;20052;-74
2022/06/26 05:00:40;;;;;;;8.95;2.75;;;;;;;31.93;32.88;100786.41;2095536;28;20097;-74
2022/06/26 05:02:08;;;;;;;4.20;1.92;;;;;;;32.17;32.72;100791.94;2094688;28;20850;-73
2022/06/26 05:03:50;;;;;;;11.57;2.15;;;;;;;32.42;32.29;100786.41;2106882;28;20044;-73
2022/06/26 05:05:26;;;;;;;10.35;2.53;;;;;;;32.68;32.42;100792.69;2101420;28;20040;-73
2022/06/26 05:06:55;;;;;;;7.72;2.38;;;;;;;32.87;31.87;100795.75;2098821;28;20047;-74
2022/06/26 05:08:32;;;;;;;12.00;3.08;;;;;;;33.07;32.19;100786.88;2100966;28;20562;-73
2022/06/26 05:09:55;;;;;;;4.50;2.30;;;;;;;33.24;31.82;100788.31;2095954;28;20032;-73
2022/06/26 05:11:18;;;;;;;9.18;2.47;;;;;;;33.41;31.72;100787.00;2105134;28;20687;-74
2022/06/26 05:12:47;;;;;;;7.85;2.60;;;;;;;33.61;31.50;100791.72;2098736;28;20131;-74
2022/06/26 05:14:27;;;;;;;11.98;2.75;;;;;;;33.83;30.95;100791.78;2103427;28;20075;-73
2022/06/26 05:15:52;;;;;;;8.13;3.13;;;;;;;34.04;30.44;100793.78;2100560;28;20036;-74
2022/06/26 05:17:14;;;;;;;6.13;2.33;;;;;;;34.23;30.21;100799.50;2098661;28;20048;-74
2022/06/26 05:18:37;;;;;;;7.53;2.53;;;;;;;34.42;29.99;100799.72;2099102;28;20163;-74
2022/06/26 05:19:59;;;;;;;5.88;2.03;;;;;;;34.59;30.05;100801.91;2096985;28;20040;-73
2022/06/26 05:21:21;;;;;;;7.90;2.25;;;;;;;34.72;30.04;100807.31;2094337;28;20094;-72
2022/06/26 05:22:45;;;;;;;5.57;2.03;;;;;;;34.84;29.99;100810.88;2085169;28;20045;-74
2022/06/26 05:24:08;;;;;;;6.35;2.15;;;;;;;34.89;29.61;100811.34;2093130;28;20044;-74
2022/06/26 05:25:31;;;;;;;5.13;2.17;;;;;;;34.95;29.53;100808.06;2104841;28;20054;-73
2022/06/26 05:26:54;;;;;;;9.13;2.28;;;;;;;35.13;29.30;100817.47;2099211;28;20048;-73
2022/06/26 05:28:16;;;;;;;8.77;2.65;;;;;;;35.28;28.98;100807.94;2096598;28;20143;-74
2022/06/26 05:29:40;;;;;;;8.30;2.22;;;;;;;35.33;28.80;100808.41;2093210;28;20557;-74
2022/06/26 05:31:03;;;;;;;8.13;2.20;;;;;;;35.41;28.87;100805.84;2093729;28;20079;-74
2022/06/26 05:32:31;;;;;;;10.75;2.28;;;;;;;35.52;28.94;100804.91;2103175;28;20542;-73
2022/06/26 05:33:57;;;;;;;8.10;2.40;;;;;;;35.66;29.16;100809.19;2098662;28;20044;-74
2022/06/26 05:35:20;;;;;;;8.68;2.53;;;;;;;35.77;29.03;100811.91;2099377;28;20067;-73
2022/06/26 05:36:43;;;;;;;6.68;2.22;;;;;;;35.86;28.70;100811.06;2092631;28;20056;-74
2022/06/26 05:38:07;;;;;;;7.35;2.17;;;;;;;35.93;28.78;100809.50;2091380;28;20945;-73
2022/06/26 05:39:31;;;;;;;6.97;2.05;;;;;;;36.03;28.87;100802.19;2095494;28;20051;-73
2022/06/26 05:40:53;;;;;;;5.93;2.00;;;;;;;36.07;29.07;100803.63;2099714;28;20047;-74
2022/06/26 05:42:15;;;;;;;6.93;2.13;;;;;;;36.17;28.79;100795.47;2092937;28;20044;-72
2022/06/26 05:43:38;;;;;;;6.45;2.10;;;;;;;36.31;28.53;100790.41;2103785;28;20089;-73
2022/06/26 05:45:09;;;;;;;5.90;1.85;;;;;;;36.47;28.27;100797.25;2092442;28;20045;-72
2022/06/26 05:46:32;;;;;;;6.43;2.40;;;;;;;36.50;28.47;100797.84;2101111;28;20044;-73
2022/06/26 05:48:14;;;;;;;9.05;2.50;;;;;;;36.50;28.53;100794.22;2112465;27;20051;-73
2022/06/26 05:50:01;;;;;;;11.45;2.67;;;;;;;36.62;28.00;100791.22;2099215;28;20434;-73
2022/06/26 05:51:43;;;;;;;9.27;2.58;;;;;;;36.76;28.02;100789.09;2118839;27;20066;-73
2022/06/26 05:53:31;;;;;;;8.27;2.50;;;;;;;36.95;28.08;100792.72;2107797;28;20058;-73
2022/06/26 05:55:06;;;;;;;8.15;2.38;;;;;;;37.06;27.85;100788.94;2108609;28;20067;-73
2022/06/26 05:56:42;;;;;;;9.05;2.50;;;;;;;37.16;27.63;100780.66;2111506;28;20035;-74
2022/06/26 05:58:37;;;;;;;10.35;2.88;;;;;;;37.25;27.40;100785.31;2080321;28;20440;-74
2022/06/26 06:00:30;;;;;;;7.60;2.58;;;;;;;37.31;27.05;100782.84;2088423;28;20468;-74
2022/06/26 06:01:52;;;;;;;10.38;2.50;;;;;;;37.35;27.21;100789.78;2094855;28;20542;-73
2022/06/26 06:03:17;;;;;;;10.93;2.30;;;;;;;37.45;27.07;100789.78;2094718;28;20436;-74
2022/06/26 06:04:44;;;;;;;11.00;2.47;;;;;;;37.57;26.93;100795.97;2109947;28;20047;-74
2022/06/26 06:06:07;;;;;;;8.13;2.47;;;;;;;37.69;26.93;100790.16;2105843;28;20036;-74
2022/06/26 06:07:29;;;;;;;9.30;2.20;;;;;;;37.71;26.55;100801.03;2103049;28;20060;-73
2022/06/26 06:08:52;;;;;;;14.65;2.78;;;;;;;37.66;26.73;100804.25;2107132;28;20039;-74
2022/06/26 06:10:14;;;;;;;9.32;2.67;;;;;;;37.67;26.71;100802.38;2101115;28;20044;-73
2022/06/26 06:11:39;;;;;;;9.07;2.42;;;;;;;37.69;26.90;100803.94;2110502;28;20036;-73
2022/06/26 06:13:03;;;;;;;11.13;2.80;;;;;;;37.73;27.05;100801.78;2104183;28;20048;-74
2022/06/26 06:14:24;;;;;;;9.55;2.38;;;;;;;37.78;27.17;100796.66;2107708;28;20193;-73
2022/06/26 06:15:49;;;;;;;7.57;2.47;;;;;;;37.82;26.71;100798.09;2085904;28;20044;-74
2022/06/26 06:18:52;;;;;;;11.10;2.42;;;;;;;36.42;28.55;100797.69;2095880;28;20151;-75
2022/06/26 06:20:18;;;;;;;13.18;3.00;;;;;;;35.37;30.35;100806.28;2116447;27;20043;-74
2022/06/26 06:21:41;;;;;;;11.82;2.80;;;;;;;34.92;31.30;100808.34;2100324;28;20056;-76
2022/06/26 06:23:06;;;;;;;10.30;3.15;;;;;;;34.82;31.59;100796.41;2091673;28;20127;-75
2022/06/26 06:24:27;;;;;;;8.10;2.90;;;;;;;34.76;31.62;100801.41;2103230;28;20456;-76
2022/06/26 06:25:53;;;;;;;7.50;2.40;;;;;;;34.66;31.37;100803.13;2096757;28;20147;-75
2022/06/26 06:27:16;;;;;;;9.50;2.28;;;;;;;34.63;32.14;100800.69;2116025;27;20503;-75
2022/06/26 06:28:41;;;;;;;9.32;2.08;;;;;;;34.59;32.79;100801.06;2098687;28;20140;-75
2022/06/26 06:30:07;;;;;;;11.05;2.85;;;;;;;34.41;33.07;100797.97;2109045;28;20081;-75
2022/06/26 06:31:31;;;;;;;9.20;2.42;;;;;;;34.35;32.41;100798.50;2096373;28;20048;-75
2022/06/26 06:32:54;;;;;;;9.80;2.80;;;;;;;34.31;32.13;100802.50;2089739;28;20071;-76
2022/06/26 06:34:32;;;;;;;12.60;2.10;;;;;;;34.35;32.08;100801.25;2096015;28;20059;-75
2022/06/26 06:35:57;;;;;;;12.48;1.98;;;;;;;34.36;32.49;100797.50;2086513;28;20044;-75
2022/06/26 06:37:22;;;;;;;7.80;2.38;;;;;;;34.41;33.22;100792.50;2097700;28;20033;-76